Fort Dodge, Iowa
Current Conditions -  °F | °C
As of 1:55 PM on Tuesday 21 Oct 2014 (Local Time) from KFOD Reporting Station
Clear Clear  
Wind Chill: 64°   Ceiling: Unl
Heat Index: 64°   Visibility: 10mi
Dew Point: 45°   Wind: 8mph
Humidity: 49%   Direction: 120°ESE
Pressure: 30.12"   Gusts: NA
Location:  42.5°N, 94.18°W
Report Text: KFOD 211855Z AUTO 12007KT 10SM CLR 18/07 A3012 RMK AO1
Loading
Personal Weather Stations






























Interactive Weather Map New forecast layout! Learn more

10-Day Weather Forecast

Advertisements
Track Severe Weather on mobile